sensor_id;sensor_type;location;lat;lon;timestamp;P1;durP1;ratioP1;P2;durP2;ratioP2
21814;SDS011;11069;48.988;8.450;2023-12-20T00:00:53;8.43;;;7.30;;
21814;SDS011;11069;48.988;8.450;2023-12-20T00:03:19;9.88;;;7.82;;
21814;SDS011;11069;48.988;8.450;2023-12-20T00:05:45;8.88;;;7.40;;
21814;SDS011;11069;48.988;8.450;2023-12-20T00:08:10;9.98;;;8.10;;
21814;SDS011;11069;48.988;8.450;2023-12-20T00:10:36;10.88;;;7.82;;
21814;SDS011;11069;48.988;8.450;2023-12-20T00:13:02;10.75;;;8.02;;
21814;SDS011;11069;48.988;8.450;2023-12-20T00:15:27;10.55;;;7.95;;
21814;SDS011;11069;48.988;8.450;2023-12-20T00:17:53;9.95;;;7.70;;
21814;SDS011;11069;48.988;8.450;2023-12-20T00:20:18;9.38;;;8.02;;
21814;SDS011;11069;48.988;8.450;2023-12-20T00:22:44;11.18;;;8.68;;
21814;SDS011;11069;48.988;8.450;2023-12-20T00:25:10;9.60;;;8.20;;
21814;SDS011;11069;48.988;8.450;2023-12-20T00:27:35;10.07;;;8.18;;
21814;SDS011;11069;48.988;8.450;2023-12-20T00:30:01;10.52;;;7.75;;
21814;SDS011;11069;48.988;8.450;2023-12-20T00:32:26;10.60;;;8.82;;
21814;SDS011;11069;48.988;8.450;2023-12-20T00:34:52;9.57;;;8.25;;
21814;SDS011;11069;48.988;8.450;2023-12-20T00:37:17;10.10;;;8.43;;
21814;SDS011;11069;48.988;8.450;2023-12-20T00:39:43;9.63;;;8.05;;
21814;SDS011;11069;48.988;8.450;2023-12-20T00:42:08;10.73;;;9.05;;
21814;SDS011;11069;48.988;8.450;2023-12-20T00:44:34;9.27;;;8.27;;
21814;SDS011;11069;48.988;8.450;2023-12-20T00:46:59;10.13;;;8.40;;
21814;SDS011;11069;48.988;8.450;2023-12-20T00:49:26;9.70;;;8.70;;
21814;SDS011;11069;48.988;8.450;2023-12-20T00:51:51;10.23;;;8.50;;
21814;SDS011;11069;48.988;8.450;2023-12-20T00:54:17;11.18;;;8.50;;
21814;SDS011;11069;48.988;8.450;2023-12-20T00:56:43;11.40;;;8.88;;
21814;SDS011;11069;48.988;8.450;2023-12-20T00:59:09;11.20;;;8.52;;
21814;SDS011;11069;48.988;8.450;2023-12-20T01:01:34;10.35;;;8.00;;
21814;SDS011;11069;48.988;8.450;2023-12-20T01:04:00;9.75;;;7.90;;
21814;SDS011;11069;48.988;8.450;2023-12-20T01:06:25;10.15;;;7.90;;
21814;SDS011;11069;48.988;8.450;2023-12-20T01:08:51;10.15;;;8.38;;
21814;SDS011;11069;48.988;8.450;2023-12-20T01:11:17;9.77;;;8.45;;
21814;SDS011;11069;48.988;8.450;2023-12-20T01:13:42;9.23;;;8.13;;
21814;SDS011;11069;48.988;8.450;2023-12-20T01:16:09;9.43;;;8.13;;
21814;SDS011;11069;48.988;8.450;2023-12-20T01:18:36;9.80;;;8.13;;
21814;SDS011;11069;48.988;8.450;2023-12-20T01:21:02;8.88;;;7.97;;
21814;SDS011;11069;48.988;8.450;2023-12-20T01:23:28;11.93;;;8.77;;
21814;SDS011;11069;48.988;8.450;2023-12-20T01:25:54;11.13;;;8.63;;
21814;SDS011;11069;48.988;8.450;2023-12-20T01:28:20;9.15;;;8.05;;
21814;SDS011;11069;48.988;8.450;2023-12-20T01:30:45;10.23;;;8.38;;
21814;SDS011;11069;48.988;8.450;2023-12-20T01:33:11;9.48;;;7.95;;
21814;SDS011;11069;48.988;8.450;2023-12-20T01:35:37;9.70;;;8.48;;
21814;SDS011;11069;48.988;8.450;2023-12-20T01:38:02;9.77;;;8.25;;
21814;SDS011;11069;48.988;8.450;2023-12-20T01:40:28;8.70;;;7.80;;
21814;SDS011;11069;48.988;8.450;2023-12-20T01:43:09;9.00;;;8.05;;
21814;SDS011;11069;48.988;8.450;2023-12-20T01:45:36;8.57;;;7.75;;
21814;SDS011;11069;48.988;8.450;2023-12-20T01:48:02;8.70;;;7.80;;
21814;SDS011;11069;48.988;8.450;2023-12-20T01:50:29;9.25;;;8.25;;
21814;SDS011;11069;48.988;8.450;2023-12-20T01:52:56;10.70;;;8.88;;
21814;SDS011;11069;48.988;8.450;2023-12-20T01:55:25;10.05;;;8.45;;
21814;SDS011;11069;48.988;8.450;2023-12-20T01:57:54;10.48;;;7.90;;
21814;SDS011;11069;48.988;8.450;2023-12-20T02:00:21;10.13;;;8.45;;
21814;SDS011;11069;48.988;8.450;2023-12-20T02:02:52;10.30;;;8.98;;
21814;SDS011;11069;48.988;8.450;2023-12-20T02:05:18;8.57;;;7.68;;
21814;SDS011;11069;48.988;8.450;2023-12-20T02:07:45;8.38;;;7.57;;
21814;SDS011;11069;48.988;8.450;2023-12-20T02:10:10;9.43;;;7.80;;
21814;SDS011;11069;48.988;8.450;2023-12-20T02:12:36;9.32;;;7.53;;
21814;SDS011;11069;48.988;8.450;2023-12-20T02:15:02;8.30;;;7.45;;
21814;SDS011;11069;48.988;8.450;2023-12-20T02:17:28;9.50;;;7.95;;
21814;SDS011;11069;48.988;8.450;2023-12-20T02:19:55;8.27;;;7.15;;
21814;SDS011;11069;48.988;8.450;2023-12-20T02:22:20;8.38;;;6.63;;
21814;SDS011;11069;48.988;8.450;2023-12-20T02:24:46;8.13;;;7.10;;
21814;SDS011;11069;48.988;8.450;2023-12-20T02:27:11;8.82;;;7.32;;
21814;SDS011;11069;48.988;8.450;2023-12-20T02:29:37;7.28;;;6.57;;
21814;SDS011;11069;48.988;8.450;2023-12-20T02:32:03;8.50;;;7.03;;
21814;SDS011;11069;48.988;8.450;2023-12-20T02:34:29;9.48;;;7.47;;
21814;SDS011;11069;48.988;8.450;2023-12-20T02:36:54;8.90;;;7.38;;
21814;SDS011;11069;48.988;8.450;2023-12-20T02:39:20;8.75;;;7.40;;
21814;SDS011;11069;48.988;8.450;2023-12-20T02:41:47;9.18;;;7.53;;
21814;SDS011;11069;48.988;8.450;2023-12-20T02:44:13;8.45;;;7.45;;
21814;SDS011;11069;48.988;8.450;2023-12-20T02:46:38;10.90;;;7.95;;
21814;SDS011;11069;48.988;8.450;2023-12-20T02:49:04;8.57;;;7.68;;
21814;SDS011;11069;48.988;8.450;2023-12-20T02:51:30;9.10;;;7.75;;
21814;SDS011;11069;48.988;8.450;2023-12-20T02:53:56;8.48;;;7.40;;
21814;SDS011;11069;48.988;8.450;2023-12-20T02:56:21;9.32;;;8.20;;
21814;SDS011;11069;48.988;8.450;2023-12-20T02:58:47;9.48;;;8.25;;
21814;SDS011;11069;48.988;8.450;2023-12-20T03:01:12;10.05;;;8.55;;
21814;SDS011;11069;48.988;8.450;2023-12-20T03:03:38;10.98;;;8.25;;
21814;SDS011;11069;48.988;8.450;2023-12-20T03:06:04;9.45;;;7.88;;
21814;SDS011;11069;48.988;8.450;2023-12-20T03:08:29;9.23;;;8.23;;
21814;SDS011;11069;48.988;8.450;2023-12-20T03:10:55;11.90;;;8.70;;
21814;SDS011;11069;48.988;8.450;2023-12-20T03:13:21;9.68;;;8.63;;
21814;SDS011;11069;48.988;8.450;2023-12-20T03:15:46;10.18;;;8.90;;
21814;SDS011;11069;48.988;8.450;2023-12-20T03:18:12;10.63;;;9.43;;
21814;SDS011;11069;48.988;8.450;2023-12-20T03:20:37;10.23;;;9.10;;
21814;SDS011;11069;48.988;8.450;2023-12-20T03:23:03;11.23;;;8.35;;
21814;SDS011;11069;48.988;8.450;2023-12-20T03:25:29;9.93;;;8.85;;
21814;SDS011;11069;48.988;8.450;2023-12-20T03:27:54;9.68;;;8.65;;
21814;SDS011;11069;48.988;8.450;2023-12-20T03:30:20;9.63;;;8.27;;
21814;SDS011;11069;48.988;8.450;2023-12-20T03:32:46;12.00;;;9.13;;
21814;SDS011;11069;48.988;8.450;2023-12-20T03:35:12;12.15;;;8.35;;
21814;SDS011;11069;48.988;8.450;2023-12-20T03:37:38;9.63;;;8.63;;
21814;SDS011;11069;48.988;8.450;2023-12-20T03:40:03;9.35;;;8.27;;
21814;SDS011;11069;48.988;8.450;2023-12-20T03:42:30;9.95;;;8.43;;
21814;SDS011;11069;48.988;8.450;2023-12-20T03:44:55;10.00;;;8.13;;
21814;SDS011;11069;48.988;8.450;2023-12-20T03:47:21;9.88;;;8.30;;
21814;SDS011;11069;48.988;8.450;2023-12-20T03:49:47;10.05;;;8.23;;
21814;SDS011;11069;48.988;8.450;2023-12-20T03:52:12;9.95;;;8.30;;
21814;SDS011;11069;48.988;8.450;2023-12-20T03:54:38;9.82;;;8.60;;
21814;SDS011;11069;48.988;8.450;2023-12-20T03:57:03;9.73;;;8.38;;
21814;SDS011;11069;48.988;8.450;2023-12-20T03:59:29;8.88;;;7.97;;
21814;SDS011;11069;48.988;8.450;2023-12-20T04:01:59;8.98;;;7.90;;
21814;SDS011;11069;48.988;8.450;2023-12-20T04:04:24;8.80;;;7.90;;
21814;SDS011;11069;48.988;8.450;2023-12-20T04:06:50;8.98;;;7.70;;
21814;SDS011;11069;48.988;8.450;2023-12-20T04:09:16;8.68;;;7.78;;
21814;SDS011;11069;48.988;8.450;2023-12-20T04:11:41;9.70;;;7.90;;
21814;SDS011;11069;48.988;8.450;2023-12-20T04:14:07;8.32;;;7.47;;
21814;SDS011;11069;48.988;8.450;2023-12-20T04:16:32;8.60;;;7.57;;
21814;SDS011;11069;48.988;8.450;2023-12-20T04:18:58;9.30;;;8.30;;
21814;SDS011;11069;48.988;8.450;2023-12-20T04:21:23;7.90;;;7.03;;
21814;SDS011;11069;48.988;8.450;2023-12-20T04:23:49;8.10;;;7.30;;
21814;SDS011;11069;48.988;8.450;2023-12-20T04:26:15;8.75;;;7.70;;
21814;SDS011;11069;48.988;8.450;2023-12-20T04:28:40;9.38;;;7.93;;
21814;SDS011;11069;48.988;8.450;2023-12-20T04:31:06;9.88;;;7.90;;
21814;SDS011;11069;48.988;8.450;2023-12-20T04:33:31;10.68;;;7.63;;
21814;SDS011;11069;48.988;8.450;2023-12-20T04:35:57;8.82;;;7.32;;
21814;SDS011;11069;48.988;8.450;2023-12-20T04:38:23;8.73;;;7.82;;
21814;SDS011;11069;48.988;8.450;2023-12-20T04:40:48;8.15;;;7.35;;
21814;SDS011;11069;48.988;8.450;2023-12-20T04:43:14;8.45;;;7.65;;
21814;SDS011;11069;48.988;8.450;2023-12-20T04:45:39;8.93;;;7.97;;
21814;SDS011;11069;48.988;8.450;2023-12-20T04:48:05;9.55;;;7.78;;
21814;SDS011;11069;48.988;8.450;2023-12-20T04:50:31;10.88;;;7.68;;
21814;SDS011;11069;48.988;8.450;2023-12-20T04:52:57;9.00;;;7.80;;
21814;SDS011;11069;48.988;8.450;2023-12-20T04:55:22;9.55;;;7.88;;
21814;SDS011;11069;48.988;8.450;2023-12-20T04:57:48;9.20;;;8.18;;
21814;SDS011;11069;48.988;8.450;2023-12-20T05:00:13;8.30;;;7.43;;
21814;SDS011;11069;48.988;8.450;2023-12-20T05:02:40;9.60;;;8.32;;
21814;SDS011;11069;48.988;8.450;2023-12-20T05:05:06;9.48;;;8.52;;
21814;SDS011;11069;48.988;8.450;2023-12-20T05:07:31;10.23;;;8.32;;
21814;SDS011;11069;48.988;8.450;2023-12-20T05:09:58;9.70;;;8.48;;
21814;SDS011;11069;48.988;8.450;2023-12-20T05:12:23;9.65;;;8.43;;
21814;SDS011;11069;48.988;8.450;2023-12-20T05:14:49;11.95;;;9.27;;
21814;SDS011;11069;48.988;8.450;2023-12-20T05:17:16;10.40;;;9.10;;
21814;SDS011;11069;48.988;8.450;2023-12-20T05:19:41;10.23;;;8.95;;
21814;SDS011;11069;48.988;8.450;2023-12-20T05:22:07;10.43;;;9.30;;
21814;SDS011;11069;48.988;8.450;2023-12-20T05:24:32;10.60;;;9.25;;
21814;SDS011;11069;48.988;8.450;2023-12-20T05:26:58;11.25;;;9.15;;
21814;SDS011;11069;48.988;8.450;2023-12-20T05:29:23;10.85;;;9.10;;
21814;SDS011;11069;48.988;8.450;2023-12-20T05:31:49;10.50;;;8.80;;
21814;SDS011;11069;48.988;8.450;2023-12-20T05:34:14;11.02;;;9.35;;
21814;SDS011;11069;48.988;8.450;2023-12-20T05:36:40;11.27;;;9.35;;
21814;SDS011;11069;48.988;8.450;2023-12-20T05:39:06;9.65;;;8.63;;
21814;SDS011;11069;48.988;8.450;2023-12-20T05:41:32;10.65;;;8.43;;
21814;SDS011;11069;48.988;8.450;2023-12-20T05:43:58;10.88;;;9.13;;
21814;SDS011;11069;48.988;8.450;2023-12-20T05:46:24;10.25;;;9.25;;
21814;SDS011;11069;48.988;8.450;2023-12-20T05:48:50;10.95;;;9.45;;
21814;SDS011;11069;48.988;8.450;2023-12-20T05:51:16;10.73;;;9.63;;
21814;SDS011;11069;48.988;8.450;2023-12-20T05:53:42;10.98;;;9.77;;
21814;SDS011;11069;48.988;8.450;2023-12-20T05:56:09;11.70;;;10.00;;
21814;SDS011;11069;48.988;8.450;2023-12-20T05:58:34;10.60;;;9.45;;
21814;SDS011;11069;48.988;8.450;2023-12-20T06:01:00;10.70;;;9.60;;
21814;SDS011;11069;48.988;8.450;2023-12-20T06:03:25;10.57;;;9.02;;
21814;SDS011;11069;48.988;8.450;2023-12-20T06:05:51;10.75;;;9.10;;
21814;SDS011;11069;48.988;8.450;2023-12-20T06:08:17;10.77;;;9.02;;
21814;SDS011;11069;48.988;8.450;2023-12-20T06:10:42;10.57;;;9.32;;
21814;SDS011;11069;48.988;8.450;2023-12-20T06:13:08;9.88;;;8.88;;
21814;SDS011;11069;48.988;8.450;2023-12-20T06:15:33;10.00;;;9.00;;
21814;SDS011;11069;48.988;8.450;2023-12-20T06:18:00;10.25;;;9.18;;
21814;SDS011;11069;48.988;8.450;2023-12-20T06:20:26;9.65;;;8.65;;
21814;SDS011;11069;48.988;8.450;2023-12-20T06:22:51;11.95;;;9.73;;
21814;SDS011;11069;48.988;8.450;2023-12-20T06:25:17;10.13;;;9.13;;
21814;SDS011;11069;48.988;8.450;2023-12-20T06:27:42;10.30;;;9.30;;
21814;SDS011;11069;48.988;8.450;2023-12-20T06:30:08;11.05;;;9.85;;
21814;SDS011;11069;48.988;8.450;2023-12-20T06:32:34;10.70;;;9.60;;
21814;SDS011;11069;48.988;8.450;2023-12-20T06:35:00;12.90;;;10.00;;
21814;SDS011;11069;48.988;8.450;2023-12-20T06:37:26;11.50;;;10.02;;
21814;SDS011;11069;48.988;8.450;2023-12-20T06:39:51;9.82;;;8.93;;
21814;SDS011;11069;48.988;8.450;2023-12-20T06:42:17;11.05;;;9.13;;
21814;SDS011;11069;48.988;8.450;2023-12-20T06:44:43;9.85;;;8.80;;
21814;SDS011;11069;48.988;8.450;2023-12-20T06:47:09;9.45;;;8.48;;
21814;SDS011;11069;48.988;8.450;2023-12-20T06:49:34;10.20;;;9.05;;
21814;SDS011;11069;48.988;8.450;2023-12-20T06:52:00;10.85;;;9.57;;
21814;SDS011;11069;48.988;8.450;2023-12-20T06:54:25;9.73;;;8.73;;
21814;SDS011;11069;48.988;8.450;2023-12-20T06:56:51;9.57;;;8.50;;
21814;SDS011;11069;48.988;8.450;2023-12-20T06:59:17;10.70;;;8.23;;
21814;SDS011;11069;48.988;8.450;2023-12-20T07:01:42;8.45;;;7.57;;
21814;SDS011;11069;48.988;8.450;2023-12-20T07:04:12;9.27;;;7.80;;
21814;SDS011;11069;48.988;8.450;2023-12-20T07:06:37;7.97;;;7.18;;
21814;SDS011;11069;48.988;8.450;2023-12-20T07:09:03;8.25;;;7.45;;
21814;SDS011;11069;48.988;8.450;2023-12-20T07:11:28;10.75;;;7.57;;
21814;SDS011;11069;48.988;8.450;2023-12-20T07:13:54;7.93;;;7.13;;
21814;SDS011;11069;48.988;8.450;2023-12-20T07:16:20;8.18;;;7.38;;
21814;SDS011;11069;48.988;8.450;2023-12-20T07:18:46;8.73;;;7.45;;
21814;SDS011;11069;48.988;8.450;2023-12-20T07:21:12;8.07;;;7.28;;
21814;SDS011;11069;48.988;8.450;2023-12-20T07:23:37;8.77;;;7.88;;
21814;SDS011;11069;48.988;8.450;2023-12-20T07:26:03;8.45;;;7.43;;
21814;SDS011;11069;48.988;8.450;2023-12-20T07:28:29;9.25;;;8.35;;
21814;SDS011;11069;48.988;8.450;2023-12-20T07:30:55;9.77;;;8.73;;
21814;SDS011;11069;48.988;8.450;2023-12-20T07:33:20;9.95;;;8.07;;
21814;SDS011;11069;48.988;8.450;2023-12-20T07:35:46;10.77;;;8.45;;
21814;SDS011;11069;48.988;8.450;2023-12-20T07:38:12;9.25;;;8.35;;
21814;SDS011;11069;48.988;8.450;2023-12-20T07:40:37;10.15;;;9.15;;
21814;SDS011;11069;48.988;8.450;2023-12-20T07:43:04;9.90;;;8.90;;
21814;SDS011;11069;48.988;8.450;2023-12-20T07:45:29;10.95;;;9.32;;
21814;SDS011;11069;48.988;8.450;2023-12-20T07:47:55;9.73;;;8.70;;
21814;SDS011;11069;48.988;8.450;2023-12-20T07:50:20;11.80;;;9.13;;
21814;SDS011;11069;48.988;8.450;2023-12-20T07:52:46;10.55;;;9.52;;
21814;SDS011;11069;48.988;8.450;2023-12-20T07:55:12;10.13;;;9.13;;
21814;SDS011;11069;48.988;8.450;2023-12-20T07:57:37;10.90;;;9.80;;
21814;SDS011;11069;48.988;8.450;2023-12-20T08:00:03;10.68;;;9.57;;
21814;SDS011;11069;48.988;8.450;2023-12-20T08:02:30;11.75;;;10.00;;
21814;SDS011;11069;48.988;8.450;2023-12-20T08:04:56;10.52;;;9.43;;
21814;SDS011;11069;48.988;8.450;2023-12-20T08:07:21;11.48;;;9.68;;
21814;SDS011;11069;48.988;8.450;2023-12-20T08:09:47;12.50;;;10.18;;
21814;SDS011;11069;48.988;8.450;2023-12-20T08:12:12;9.40;;;8.50;;
21814;SDS011;11069;48.988;8.450;2023-12-20T08:14:38;8.45;;;7.50;;
21814;SDS011;11069;48.988;8.450;2023-12-20T08:17:03;9.52;;;8.23;;
21814;SDS011;11069;48.988;8.450;2023-12-20T08:19:29;8.20;;;7.28;;
21814;SDS011;11069;48.988;8.450;2023-12-20T08:21:54;7.05;;;6.35;;
21814;SDS011;11069;48.988;8.450;2023-12-20T08:24:20;7.65;;;6.22;;
21814;SDS011;11069;48.988;8.450;2023-12-20T08:26:46;6.68;;;5.97;;
21814;SDS011;11069;48.988;8.450;2023-12-20T08:29:14;6.30;;;5.70;;
21814;SDS011;11069;48.988;8.450;2023-12-20T08:31:40;6.88;;;5.75;;
21814;SDS011;11069;48.988;8.450;2023-12-20T08:34:05;7.28;;;5.50;;
21814;SDS011;11069;48.988;8.450;2023-12-20T08:36:31;7.40;;;5.30;;
21814;SDS011;11069;48.988;8.450;2023-12-20T08:38:57;5.32;;;4.82;;
21814;SDS011;11069;48.988;8.450;2023-12-20T08:41:22;5.45;;;4.25;;
21814;SDS011;11069;48.988;8.450;2023-12-20T08:43:48;8.90;;;4.82;;
21814;SDS011;11069;48.988;8.450;2023-12-20T08:46:14;5.85;;;3.85;;
21814;SDS011;11069;48.988;8.450;2023-12-20T08:48:40;4.47;;;3.40;;
21814;SDS011;11069;48.988;8.450;2023-12-20T08:51:05;4.03;;;2.90;;
21814;SDS011;11069;48.988;8.450;2023-12-20T08:53:33;4.88;;;2.85;;
21814;SDS011;11069;48.988;8.450;2023-12-20T08:55:59;4.15;;;2.58;;
21814;SDS011;11069;48.988;8.450;2023-12-20T08:58:26;5.32;;;2.50;;
21814;SDS011;11069;48.988;8.450;2023-12-20T09:00:53;5.38;;;2.35;;
21814;SDS011;11069;48.988;8.450;2023-12-20T09:03:18;4.22;;;2.25;;
21814;SDS011;11069;48.988;8.450;2023-12-20T09:05:44;5.40;;;2.45;;
21814;SDS011;11069;48.988;8.450;2023-12-20T09:08:09;3.75;;;2.20;;
21814;SDS011;11069;48.988;8.450;2023-12-20T09:10:35;6.65;;;2.40;;
21814;SDS011;11069;48.988;8.450;2023-12-20T09:13:02;3.25;;;2.00;;
21814;SDS011;11069;48.988;8.450;2023-12-20T09:15:29;5.03;;;1.80;;
21814;SDS011;11069;48.988;8.450;2023-12-20T09:17:55;5.35;;;2.10;;
21814;SDS011;11069;48.988;8.450;2023-12-20T09:20:20;3.88;;;1.90;;
21814;SDS011;11069;48.988;8.450;2023-12-20T09:22:48;5.60;;;2.03;;
21814;SDS011;11069;48.988;8.450;2023-12-20T09:25:14;2.15;;;1.60;;
21814;SDS011;11069;48.988;8.450;2023-12-20T09:27:41;3.83;;;1.88;;
21814;SDS011;11069;48.988;8.450;2023-12-20T09:30:06;6.13;;;2.10;;
21814;SDS011;11069;48.988;8.450;2023-12-20T09:32:32;5.03;;;2.35;;
21814;SDS011;11069;48.988;8.450;2023-12-20T09:34:58;6.70;;;2.47;;
21814;SDS011;11069;48.988;8.450;2023-12-20T09:37:26;5.28;;;2.38;;
21814;SDS011;11069;48.988;8.450;2023-12-20T09:39:52;5.10;;;2.92;;
21814;SDS011;11069;48.988;8.450;2023-12-20T09:42:21;5.15;;;2.67;;
21814;SDS011;11069;48.988;8.450;2023-12-20T09:44:52;5.53;;;3.03;;
21814;SDS011;11069;48.988;8.450;2023-12-20T09:47:18;4.55;;;2.63;;
21814;SDS011;11069;48.988;8.450;2023-12-20T09:49:47;8.00;;;3.03;;
21814;SDS011;11069;48.988;8.450;2023-12-20T09:52:14;6.43;;;3.22;;
21814;SDS011;11069;48.988;8.450;2023-12-20T09:54:41;9.15;;;3.33;;
21814;SDS011;11069;48.988;8.450;2023-12-20T09:57:09;7.80;;;3.75;;
21814;SDS011;11069;48.988;8.450;2023-12-20T09:59:35;6.05;;;3.65;;
21814;SDS011;11069;48.988;8.450;2023-12-20T10:02:00;5.80;;;3.10;;
21814;SDS011;11069;48.988;8.450;2023-12-20T10:04:31;5.00;;;2.90;;
21814;SDS011;11069;48.988;8.450;2023-12-20T10:07:01;5.95;;;3.70;;
21814;SDS011;11069;48.988;8.450;2023-12-20T10:09:29;7.07;;;3.22;;
21814;SDS011;11069;48.988;8.450;2023-12-20T10:11:57;4.60;;;2.83;;
21814;SDS011;11069;48.988;8.450;2023-12-20T10:14:23;4.82;;;2.75;;
21814;SDS011;11069;48.988;8.450;2023-12-20T10:16:49;8.82;;;3.47;;
21814;SDS011;11069;48.988;8.450;2023-12-20T10:19:16;6.07;;;3.33;;
21814;SDS011;11069;48.988;8.450;2023-12-20T10:21:43;7.75;;;3.60;;
21814;SDS011;11069;48.988;8.450;2023-12-20T10:24:09;8.07;;;3.30;;
21814;SDS011;11069;48.988;8.450;2023-12-20T10:26:42;5.57;;;2.90;;
21814;SDS011;11069;48.988;8.450;2023-12-20T10:29:07;9.43;;;3.78;;
21814;SDS011;11069;48.988;8.450;2023-12-20T10:31:33;7.88;;;3.45;;
21814;SDS011;11069;48.988;8.450;2023-12-20T10:34:00;10.40;;;3.40;;
21814;SDS011;11069;48.988;8.450;2023-12-20T10:36:28;6.13;;;3.28;;
21814;SDS011;11069;48.988;8.450;2023-12-20T10:38:55;6.85;;;3.15;;
21814;SDS011;11069;48.988;8.450;2023-12-20T10:43:58;7.60;;;3.60;;
21814;SDS011;11069;48.988;8.450;2023-12-20T10:46:28;7.60;;;3.13;;
21814;SDS011;11069;48.988;8.450;2023-12-20T10:48:55;8.30;;;3.40;;
21814;SDS011;11069;48.988;8.450;2023-12-20T10:51:22;10.25;;;3.50;;
21814;SDS011;11069;48.988;8.450;2023-12-20T10:53:49;9.25;;;3.70;;
21814;SDS011;11069;48.988;8.450;2023-12-20T10:56:16;7.47;;;3.70;;
21814;SDS011;11069;48.988;8.450;2023-12-20T10:58:43;8.65;;;3.67;;
21814;SDS011;11069;48.988;8.450;2023-12-20T11:01:10;6.80;;;3.35;;
21814;SDS011;11069;48.988;8.450;2023-12-20T11:04:02;7.97;;;3.63;;
21814;SDS011;11069;48.988;8.450;2023-12-20T11:06:43;8.65;;;3.38;;
21814;SDS011;11069;48.988;8.450;2023-12-20T11:14:25;5.30;;;2.85;;
21814;SDS011;11069;48.988;8.450;2023-12-20T11:17:09;8.60;;;3.47;;
21814;SDS011;11069;48.988;8.450;2023-12-20T11:22:26;7.00;;;2.97;;
21814;SDS011;11069;48.988;8.450;2023-12-20T11:24:55;6.88;;;2.80;;
21814;SDS011;11069;48.988;8.450;2023-12-20T11:27:27;7.55;;;3.20;;
21814;SDS011;11069;48.988;8.450;2023-12-20T11:29:53;10.88;;;3.30;;
21814;SDS011;11069;48.988;8.450;2023-12-20T11:37:37;9.40;;;3.20;;
21814;SDS011;11069;48.988;8.450;2023-12-20T11:40:07;7.05;;;3.10;;
21814;SDS011;11069;48.988;8.450;2023-12-20T11:42:39;9.40;;;3.80;;
21814;SDS011;11069;48.988;8.450;2023-12-20T11:45:16;9.07;;;3.30;;
21814;SDS011;11069;48.988;8.450;2023-12-20T11:47:46;8.95;;;3.28;;
21814;SDS011;11069;48.988;8.450;2023-12-20T11:50:17;8.88;;;3.22;;
21814;SDS011;11069;48.988;8.450;2023-12-20T11:52:43;7.00;;;3.58;;
21814;SDS011;11069;48.988;8.450;2023-12-20T11:55:09;7.90;;;3.63;;
21814;SDS011;11069;48.988;8.450;2023-12-20T11:57:35;7.50;;;3.55;;
21814;SDS011;11069;48.988;8.450;2023-12-20T12:00:02;8.05;;;3.78;;
21814;SDS011;11069;48.988;8.450;2023-12-20T12:02:28;7.65;;;3.42;;
21814;SDS011;11069;48.988;8.450;2023-12-20T12:04:54;9.80;;;3.90;;
21814;SDS011;11069;48.988;8.450;2023-12-20T12:07:21;9.68;;;4.35;;
21814;SDS011;11069;48.988;8.450;2023-12-20T12:09:47;10.45;;;4.07;;
21814;SDS011;11069;48.988;8.450;2023-12-20T12:12:13;11.45;;;3.33;;
21814;SDS011;11069;48.988;8.450;2023-12-20T12:14:39;9.00;;;3.83;;
21814;SDS011;11069;48.988;8.450;2023-12-20T12:17:13;9.98;;;3.45;;
21814;SDS011;11069;48.988;8.450;2023-12-20T12:19:40;11.85;;;3.35;;
21814;SDS011;11069;48.988;8.450;2023-12-20T12:22:06;8.70;;;3.42;;
21814;SDS011;11069;48.988;8.450;2023-12-20T12:24:35;10.18;;;4.05;;
21814;SDS011;11069;48.988;8.450;2023-12-20T12:27:01;10.93;;;3.70;;
21814;SDS011;11069;48.988;8.450;2023-12-20T12:29:27;8.30;;;3.10;;
21814;SDS011;11069;48.988;8.450;2023-12-20T12:31:53;9.15;;;3.08;;
21814;SDS011;11069;48.988;8.450;2023-12-20T12:34:18;8.60;;;3.10;;
21814;SDS011;11069;48.988;8.450;2023-12-20T12:36:44;11.07;;;3.42;;
21814;SDS011;11069;48.988;8.450;2023-12-20T12:39:14;11.70;;;2.88;;
21814;SDS011;11069;48.988;8.450;2023-12-20T12:41:43;12.15;;;3.47;;
21814;SDS011;11069;48.988;8.450;2023-12-20T12:44:08;10.18;;;3.40;;
21814;SDS011;11069;48.988;8.450;2023-12-20T12:46:34;9.10;;;3.38;;
21814;SDS011;11069;48.988;8.450;2023-12-20T12:49:00;9.48;;;3.55;;
21814;SDS011;11069;48.988;8.450;2023-12-20T12:51:25;10.70;;;3.50;;
21814;SDS011;11069;48.988;8.450;2023-12-20T12:53:51;8.38;;;3.17;;
21814;SDS011;11069;48.988;8.450;2023-12-20T12:56:17;11.63;;;3.10;;
21814;SDS011;11069;48.988;8.450;2023-12-20T12:58:43;7.43;;;3.35;;
21814;SDS011;11069;48.988;8.450;2023-12-20T13:01:09;7.30;;;2.92;;
21814;SDS011;11069;48.988;8.450;2023-12-20T13:03:35;7.90;;;3.30;;
21814;SDS011;11069;48.988;8.450;2023-12-20T13:06:01;9.60;;;3.20;;
21814;SDS011;11069;48.988;8.450;2023-12-20T13:08:26;14.07;;;3.65;;
21814;SDS011;11069;48.988;8.450;2023-12-20T13:10:52;6.97;;;3.25;;
21814;SDS011;11069;48.988;8.450;2023-12-20T13:13:18;7.65;;;2.75;;
21814;SDS011;11069;48.988;8.450;2023-12-20T13:15:44;9.68;;;3.28;;
21814;SDS011;11069;48.988;8.450;2023-12-20T13:18:16;7.15;;;3.00;;
21814;SDS011;11069;48.988;8.450;2023-12-20T13:20:45;8.77;;;2.75;;
21814;SDS011;11069;48.988;8.450;2023-12-20T13:23:11;8.30;;;3.10;;
21814;SDS011;11069;48.988;8.450;2023-12-20T13:25:36;8.82;;;2.90;;
21814;SDS011;11069;48.988;8.450;2023-12-20T13:28:02;7.72;;;2.85;;
21814;SDS011;11069;48.988;8.450;2023-12-20T13:30:28;8.00;;;3.15;;
21814;SDS011;11069;48.988;8.450;2023-12-20T13:32:54;8.77;;;3.13;;
21814;SDS011;11069;48.988;8.450;2023-12-20T13:35:20;9.90;;;3.13;;
21814;SDS011;11069;48.988;8.450;2023-12-20T13:37:46;9.40;;;2.80;;
21814;SDS011;11069;48.988;8.450;2023-12-20T13:40:12;9.27;;;2.80;;
21814;SDS011;11069;48.988;8.450;2023-12-20T13:42:38;7.40;;;2.88;;
21814;SDS011;11069;48.988;8.450;2023-12-20T13:45:05;10.23;;;2.80;;
21814;SDS011;11069;48.988;8.450;2023-12-20T13:47:31;8.82;;;2.90;;
21814;SDS011;11069;48.988;8.450;2023-12-20T13:49:57;8.50;;;3.45;;
21814;SDS011;11069;48.988;8.450;2023-12-20T13:52:23;7.15;;;2.78;;
21814;SDS011;11069;48.988;8.450;2023-12-20T13:54:48;11.50;;;3.72;;
21814;SDS011;11069;48.988;8.450;2023-12-20T13:57:14;7.13;;;2.70;;
21814;SDS011;11069;48.988;8.450;2023-12-20T13:59:40;9.30;;;3.25;;
21814;SDS011;11069;48.988;8.450;2023-12-20T14:02:05;11.48;;;3.13;;
21814;SDS011;11069;48.988;8.450;2023-12-20T14:04:31;10.80;;;3.17;;
21814;SDS011;11069;48.988;8.450;2023-12-20T14:06:57;7.05;;;2.80;;
21814;SDS011;11069;48.988;8.450;2023-12-20T14:09:23;8.93;;;3.38;;
21814;SDS011;11069;48.988;8.450;2023-12-20T14:11:48;9.02;;;3.00;;
21814;SDS011;11069;48.988;8.450;2023-12-20T14:14:14;9.25;;;2.97;;
21814;SDS011;11069;48.988;8.450;2023-12-20T14:16:40;6.38;;;2.85;;
21814;SDS011;11069;48.988;8.450;2023-12-20T14:19:06;11.23;;;3.25;;
21814;SDS011;11069;48.988;8.450;2023-12-20T14:21:34;8.82;;;3.25;;
21814;SDS011;11069;48.988;8.450;2023-12-20T14:24:00;8.35;;;2.85;;
21814;SDS011;11069;48.988;8.450;2023-12-20T14:26:28;9.68;;;2.90;;
21814;SDS011;11069;48.988;8.450;2023-12-20T14:28:55;7.85;;;2.90;;
21814;SDS011;11069;48.988;8.450;2023-12-20T14:31:21;10.00;;;3.17;;
21814;SDS011;11069;48.988;8.450;2023-12-20T14:33:49;10.40;;;2.88;;
21814;SDS011;11069;48.988;8.450;2023-12-20T14:36:16;10.13;;;3.15;;
21814;SDS011;11069;48.988;8.450;2023-12-20T14:38:43;9.07;;;2.63;;
21814;SDS011;11069;48.988;8.450;2023-12-20T14:41:08;9.10;;;2.90;;
21814;SDS011;11069;48.988;8.450;2023-12-20T14:43:34;10.60;;;3.25;;
21814;SDS011;11069;48.988;8.450;2023-12-20T14:46:00;10.30;;;3.72;;
21814;SDS011;11069;48.988;8.450;2023-12-20T14:48:26;9.32;;;3.33;;
21814;SDS011;11069;48.988;8.450;2023-12-20T14:50:53;8.20;;;2.80;;
21814;SDS011;11069;48.988;8.450;2023-12-20T14:53:19;12.93;;;2.70;;